sensor_id;sensor_type;location;lat;lon;timestamp;noise_LAeq;noise_LA_min;noise_LA_max;noise_LA01;noise_LA95
74496;Laerm;62979;55.720;37.606;2023-06-14T00:00:16;42.52;37.31;52.58;;
74496;Laerm;62979;55.720;37.606;2023-06-14T00:02:43;47.17;37.90;60.86;;
74496;Laerm;62979;55.720;37.606;2023-06-14T00:05:10;43.29;37.48;55.99;;
74496;Laerm;62979;55.720;37.606;2023-06-14T00:07:41;42.11;37.60;51.24;;
74496;Laerm;62979;55.720;37.606;2023-06-14T00:10:11;42.92;38.23;50.11;;
74496;Laerm;62979;55.720;37.606;2023-06-14T00:12:38;44.39;38.15;51.97;;
74496;Laerm;62979;55.720;37.606;2023-06-14T00:15:07;48.70;39.65;62.98;;
74496;Laerm;62979;55.720;37.606;2023-06-14T00:17:35;45.28;38.75;60.20;;
74496;Laerm;62979;55.720;37.606;2023-06-14T00:20:05;46.10;38.35;55.62;;
74496;Laerm;62979;55.720;37.606;2023-06-14T00:22:33;45.23;38.65;54.24;;
74496;Laerm;62979;55.720;37.606;2023-06-14T00:25:02;43.38;37.84;52.75;;
74496;Laerm;62979;55.720;37.606;2023-06-14T00:27:30;44.30;37.26;60.48;;
74496;Laerm;62979;55.720;37.606;2023-06-14T00:29:57;43.26;38.21;52.77;;
74496;Laerm;62979;55.720;37.606;2023-06-14T00:32:24;43.20;39.01;52.43;;
74496;Laerm;62979;55.720;37.606;2023-06-14T00:34:53;43.64;38.76;52.72;;
74496;Laerm;62979;55.720;37.606;2023-06-14T00:37:20;44.69;39.16;55.92;;
74496;Laerm;62979;55.720;37.606;2023-06-14T00:39:47;45.71;38.52;60.01;;
74496;Laerm;62979;55.720;37.606;2023-06-14T00:42:23;44.43;39.75;48.93;;
74496;Laerm;62979;55.720;37.606;2023-06-14T00:44:53;48.71;40.29;66.07;;
74496;Laerm;62979;55.720;37.606;2023-06-14T00:47:20;45.16;39.16;57.69;;
74496;Laerm;62979;55.720;37.606;2023-06-14T00:49:49;44.95;39.45;57.04;;
74496;Laerm;62979;55.720;37.606;2023-06-14T00:52:17;43.33;38.86;48.64;;
74496;Laerm;62979;55.720;37.606;2023-06-14T00:54:44;43.45;38.88;52.80;;
74496;Laerm;62979;55.720;37.606;2023-06-14T00:57:12;43.46;38.82;50.13;;
74496;Laerm;62979;55.720;37.606;2023-06-14T00:59:45;43.68;38.74;52.48;;
74496;Laerm;62979;55.720;37.606;2023-06-14T01:02:14;46.45;40.03;59.37;;
74496;Laerm;62979;55.720;37.606;2023-06-14T01:04:45;43.23;39.31;50.49;;
74496;Laerm;62979;55.720;37.606;2023-06-14T01:07:25;44.00;39.32;59.28;;
74496;Laerm;62979;55.720;37.606;2023-06-14T01:10:12;44.86;39.88;54.51;;
74496;Laerm;62979;55.720;37.606;2023-06-14T01:12:56;45.11;40.36;55.76;;
74496;Laerm;62979;55.720;37.606;2023-06-14T01:15:26;45.67;39.49;55.74;;
74496;Laerm;62979;55.720;37.606;2023-06-14T01:17:56;50.51;39.68;67.92;;
74496;Laerm;62979;55.720;37.606;2023-06-14T01:20:31;46.65;38.87;63.78;;
74496;Laerm;62979;55.720;37.606;2023-06-14T01:23:00;43.66;38.71;57.21;;
74496;Laerm;62979;55.720;37.606;2023-06-14T01:25:27;45.71;39.12;58.34;;
74496;Laerm;62979;55.720;37.606;2023-06-14T01:28:00;48.16;38.24;63.79;;
74496;Laerm;62979;55.720;37.606;2023-06-14T01:30:30;46.59;38.72;59.20;;
74496;Laerm;62979;55.720;37.606;2023-06-14T01:32:59;46.71;40.01;60.58;;
74496;Laerm;62979;55.720;37.606;2023-06-14T01:35:26;43.77;39.58;50.56;;
74496;Laerm;62979;55.720;37.606;2023-06-14T01:37:54;43.41;39.04;47.56;;
74496;Laerm;62979;55.720;37.606;2023-06-14T01:40:23;44.95;39.40;52.64;;
74496;Laerm;62979;55.720;37.606;2023-06-14T01:42:52;49.19;39.64;60.74;;
74496;Laerm;62979;55.720;37.606;2023-06-14T01:45:20;43.68;39.03;50.10;;
74496;Laerm;62979;55.720;37.606;2023-06-14T01:47:49;43.97;38.44;51.79;;
74496;Laerm;62979;55.720;37.606;2023-06-14T01:50:19;42.87;38.50;54.42;;
74496;Laerm;62979;55.720;37.606;2023-06-14T01:52:47;47.04;38.71;58.08;;
74496;Laerm;62979;55.720;37.606;2023-06-14T01:55:14;46.76;39.66;57.87;;
74496;Laerm;62979;55.720;37.606;2023-06-14T01:57:44;49.54;39.00;63.32;;
74496;Laerm;62979;55.720;37.606;2023-06-14T02:00:13;43.58;38.91;50.84;;
74496;Laerm;62979;55.720;37.606;2023-06-14T02:02:41;46.11;39.29;60.43;;
74496;Laerm;62979;55.720;37.606;2023-06-14T02:05:08;45.17;38.13;56.80;;
74496;Laerm;62979;55.720;37.606;2023-06-14T02:07:36;43.75;38.25;52.21;;
74496;Laerm;62979;55.720;37.606;2023-06-14T02:10:03;43.64;38.40;52.31;;
74496;Laerm;62979;55.720;37.606;2023-06-14T02:12:30;43.21;38.90;48.47;;
74496;Laerm;62979;55.720;37.606;2023-06-14T02:14:58;43.82;39.88;54.37;;
74496;Laerm;62979;55.720;37.606;2023-06-14T02:17:26;43.69;40.11;55.64;;
74496;Laerm;62979;55.720;37.606;2023-06-14T02:19:53;44.35;40.48;58.15;;
74496;Laerm;62979;55.720;37.606;2023-06-14T02:22:21;44.18;40.23;48.87;;
74496;Laerm;62979;55.720;37.606;2023-06-14T02:24:48;46.46;39.86;58.92;;
74496;Laerm;62979;55.720;37.606;2023-06-14T02:27:16;47.99;39.45;59.76;;
74496;Laerm;62979;55.720;37.606;2023-06-14T02:29:43;44.15;39.91;50.97;;
74496;Laerm;62979;55.720;37.606;2023-06-14T02:32:11;44.19;38.78;56.27;;
74496;Laerm;62979;55.720;37.606;2023-06-14T02:34:39;43.40;38.45;51.32;;
74496;Laerm;62979;55.720;37.606;2023-06-14T02:37:07;43.09;38.69;51.20;;
74496;Laerm;62979;55.720;37.606;2023-06-14T02:39:34;45.10;39.29;57.61;;
74496;Laerm;62979;55.720;37.606;2023-06-14T02:42:02;42.25;37.90;47.51;;
74496;Laerm;62979;55.720;37.606;2023-06-14T02:44:29;49.00;39.78;62.24;;
74496;Laerm;62979;55.720;37.606;2023-06-14T02:46:57;43.51;38.59;60.74;;
74496;Laerm;62979;55.720;37.606;2023-06-14T02:49:27;53.74;39.68;65.74;;
74496;Laerm;62979;55.720;37.606;2023-06-14T02:51:55;45.89;38.88;56.32;;
74496;Laerm;62979;55.720;37.606;2023-06-14T02:54:22;49.30;39.22;58.95;;
74496;Laerm;62979;55.720;37.606;2023-06-14T02:56:49;56.80;38.97;70.73;;
74496;Laerm;62979;55.720;37.606;2023-06-14T02:59:16;45.67;38.53;60.51;;
74496;Laerm;62979;55.720;37.606;2023-06-14T03:01:44;49.80;39.84;60.92;;
74496;Laerm;62979;55.720;37.606;2023-06-14T03:04:11;48.18;38.63;69.67;;
74496;Laerm;62979;55.720;37.606;2023-06-14T03:06:40;50.13;38.62;60.73;;
74496;Laerm;62979;55.720;37.606;2023-06-14T03:09:09;55.73;39.45;67.84;;
74496;Laerm;62979;55.720;37.606;2023-06-14T03:11:36;49.98;38.04;64.22;;
74496;Laerm;62979;55.720;37.606;2023-06-14T03:14:03;50.52;41.44;59.68;;
74496;Laerm;62979;55.720;37.606;2023-06-14T03:16:32;50.52;38.72;68.62;;
74496;Laerm;62979;55.720;37.606;2023-06-14T03:18:59;48.45;38.68;61.54;;
74496;Laerm;62979;55.720;37.606;2023-06-14T03:21:26;45.30;38.02;57.70;;
74496;Laerm;62979;55.720;37.606;2023-06-14T03:23:55;51.53;38.28;69.85;;
74496;Laerm;62979;55.720;37.606;2023-06-14T03:26:22;49.30;37.86;60.50;;
74496;Laerm;62979;55.720;37.606;2023-06-14T03:28:49;49.18;38.16;63.84;;
74496;Laerm;62979;55.720;37.606;2023-06-14T03:31:16;48.76;38.41;61.84;;
74496;Laerm;62979;55.720;37.606;2023-06-14T03:33:43;45.37;38.05;57.08;;
74496;Laerm;62979;55.720;37.606;2023-06-14T03:36:10;46.58;37.19;59.06;;
74496;Laerm;62979;55.720;37.606;2023-06-14T03:38:36;47.45;39.49;58.25;;
74496;Laerm;62979;55.720;37.606;2023-06-14T03:41:05;52.26;42.63;63.96;;
74496;Laerm;62979;55.720;37.606;2023-06-14T03:43:32;49.44;38.91;62.26;;
74496;Laerm;62979;55.720;37.606;2023-06-14T03:45:59;51.56;40.04;64.18;;
74496;Laerm;62979;55.720;37.606;2023-06-14T03:48:26;51.83;40.43;63.45;;
74496;Laerm;62979;55.720;37.606;2023-06-14T03:50:52;47.44;39.23;58.80;;
74496;Laerm;62979;55.720;37.606;2023-06-14T03:53:20;48.50;39.07;58.82;;
74496;Laerm;62979;55.720;37.606;2023-06-14T03:55:48;48.15;39.14;59.66;;
74496;Laerm;62979;55.720;37.606;2023-06-14T03:58:19;50.07;39.07;65.38;;
74496;Laerm;62979;55.720;37.606;2023-06-14T04:00:46;51.64;41.86;59.04;;
74496;Laerm;62979;55.720;37.606;2023-06-14T04:03:13;49.16;40.00;65.66;;
74496;Laerm;62979;55.720;37.606;2023-06-14T04:05:41;50.93;38.91;69.42;;
74496;Laerm;62979;55.720;37.606;2023-06-14T04:08:08;50.87;40.89;61.18;;
74496;Laerm;62979;55.720;37.606;2023-06-14T04:10:35;49.75;40.10;62.28;;
74496;Laerm;62979;55.720;37.606;2023-06-14T04:13:02;50.09;40.15;60.84;;
74496;Laerm;62979;55.720;37.606;2023-06-14T04:15:31;50.64;39.39;60.93;;
74496;Laerm;62979;55.720;37.606;2023-06-14T04:17:58;56.27;40.97;72.92;;
74496;Laerm;62979;55.720;37.606;2023-06-14T04:20:25;54.07;41.15;63.76;;
74496;Laerm;62979;55.720;37.606;2023-06-14T04:22:53;52.71;41.85;62.10;;
74496;Laerm;62979;55.720;37.606;2023-06-14T04:25:22;53.63;41.96;66.11;;
74496;Laerm;62979;55.720;37.606;2023-06-14T04:27:51;52.21;41.81;61.72;;
74496;Laerm;62979;55.720;37.606;2023-06-14T04:30:19;53.61;43.38;60.36;;
74496;Laerm;62979;55.720;37.606;2023-06-14T04:32:48;53.12;40.73;62.99;;
74496;Laerm;62979;55.720;37.606;2023-06-14T04:35:19;52.04;39.70;65.58;;
74496;Laerm;62979;55.720;37.606;2023-06-14T04:37:46;53.33;44.17;61.61;;
74496;Laerm;62979;55.720;37.606;2023-06-14T04:40:13;52.69;44.57;60.76;;
74496;Laerm;62979;55.720;37.606;2023-06-14T04:42:40;51.42;43.40;58.35;;
74496;Laerm;62979;55.720;37.606;2023-06-14T04:45:10;54.72;43.36;64.73;;
74496;Laerm;62979;55.720;37.606;2023-06-14T04:47:38;54.38;41.67;71.61;;
74496;Laerm;62979;55.720;37.606;2023-06-14T04:50:07;56.37;45.21;69.32;;
74496;Laerm;62979;55.720;37.606;2023-06-14T04:52:35;56.57;50.43;72.20;;
74496;Laerm;62979;55.720;37.606;2023-06-14T04:55:02;56.75;49.61;77.74;;
74496;Laerm;62979;55.720;37.606;2023-06-14T04:57:30;60.65;49.67;70.59;;
74496;Laerm;62979;55.720;37.606;2023-06-14T04:59:57;62.50;59.69;71.32;;
74496;Laerm;62979;55.720;37.606;2023-06-14T05:02:26;59.12;44.14;68.47;;
74496;Laerm;62979;55.720;37.606;2023-06-14T05:04:56;54.95;45.39;64.07;;
74496;Laerm;62979;55.720;37.606;2023-06-14T05:07:24;54.83;43.88;62.64;;
74496;Laerm;62979;55.720;37.606;2023-06-14T05:09:51;64.25;45.73;84.03;;
74496;Laerm;62979;55.720;37.606;2023-06-14T05:12:18;64.50;45.55;84.12;;
74496;Laerm;62979;55.720;37.606;2023-06-14T05:14:46;56.60;43.39;70.88;;
74496;Laerm;62979;55.720;37.606;2023-06-14T05:17:12;55.08;43.31;63.16;;
74496;Laerm;62979;55.720;37.606;2023-06-14T05:19:39;54.58;47.02;63.69;;
74496;Laerm;62979;55.720;37.606;2023-06-14T05:22:06;54.56;45.32;62.39;;
74496;Laerm;62979;55.720;37.606;2023-06-14T05:24:34;54.51;43.69;66.79;;
74496;Laerm;62979;55.720;37.606;2023-06-14T05:27:01;56.04;48.03;64.42;;
74496;Laerm;62979;55.720;37.606;2023-06-14T05:29:28;54.49;46.35;64.67;;
74496;Laerm;62979;55.720;37.606;2023-06-14T05:31:55;54.98;46.83;63.13;;
74496;Laerm;62979;55.720;37.606;2023-06-14T05:34:22;54.08;46.09;61.64;;
74496;Laerm;62979;55.720;37.606;2023-06-14T05:36:49;54.69;43.98;65.30;;
74496;Laerm;62979;55.720;37.606;2023-06-14T05:39:16;56.67;46.26;71.76;;
74496;Laerm;62979;55.720;37.606;2023-06-14T05:41:44;54.08;45.68;63.52;;
74496;Laerm;62979;55.720;37.606;2023-06-14T05:44:11;54.64;43.40;63.48;;
74496;Laerm;62979;55.720;37.606;2023-06-14T05:46:38;54.47;44.06;61.62;;
74496;Laerm;62979;55.720;37.606;2023-06-14T05:49:05;54.71;46.43;61.75;;
74496;Laerm;62979;55.720;37.606;2023-06-14T05:51:32;56.95;47.93;68.70;;
74496;Laerm;62979;55.720;37.606;2023-06-14T05:53:59;63.26;47.60;86.18;;
74496;Laerm;62979;55.720;37.606;2023-06-14T05:56:26;55.49;46.20;65.02;;
74496;Laerm;62979;55.720;37.606;2023-06-14T05:58:54;55.16;47.04;68.39;;
74496;Laerm;62979;55.720;37.606;2023-06-14T06:01:21;55.56;47.60;62.78;;
74496;Laerm;62979;55.720;37.606;2023-06-14T06:03:48;54.73;45.50;61.91;;
74496;Laerm;62979;55.720;37.606;2023-06-14T06:06:15;56.05;48.87;66.37;;
74496;Laerm;62979;55.720;37.606;2023-06-14T06:08:43;57.24;49.27;71.73;;
74496;Laerm;62979;55.720;37.606;2023-06-14T06:11:10;62.15;48.11;76.27;;
74496;Laerm;62979;55.720;37.606;2023-06-14T06:13:38;58.95;49.90;69.93;;
74496;Laerm;62979;55.720;37.606;2023-06-14T06:16:07;62.12;47.48;77.67;;
74496;Laerm;62979;55.720;37.606;2023-06-14T06:18:34;61.99;50.91;77.53;;
74496;Laerm;62979;55.720;37.606;2023-06-14T06:21:02;65.07;53.28;77.97;;
74496;Laerm;62979;55.720;37.606;2023-06-14T06:23:29;63.68;49.96;75.98;;
74496;Laerm;62979;55.720;37.606;2023-06-14T06:25:56;63.87;48.88;75.21;;
74496;Laerm;62979;55.720;37.606;2023-06-14T06:28:23;62.80;46.98;77.27;;
74496;Laerm;62979;55.720;37.606;2023-06-14T06:30:50;60.67;49.90;76.14;;
74496;Laerm;62979;55.720;37.606;2023-06-14T06:33:19;55.02;46.23;64.95;;
74496;Laerm;62979;55.720;37.606;2023-06-14T06:35:45;55.76;48.30;65.69;;
74496;Laerm;62979;55.720;37.606;2023-06-14T06:38:12;55.40;47.60;63.61;;
74496;Laerm;62979;55.720;37.606;2023-06-14T06:40:39;56.09;46.87;66.31;;
74496;Laerm;62979;55.720;37.606;2023-06-14T06:43:06;54.28;45.46;64.25;;
74496;Laerm;62979;55.720;37.606;2023-06-14T06:45:33;54.72;47.60;61.12;;
74496;Laerm;62979;55.720;37.606;2023-06-14T06:48:00;55.03;45.85;69.28;;
74496;Laerm;62979;55.720;37.606;2023-06-14T06:50:28;57.72;48.54;72.76;;
74496;Laerm;62979;55.720;37.606;2023-06-14T06:52:55;59.07;49.43;74.08;;
74496;Laerm;62979;55.720;37.606;2023-06-14T06:55:23;55.10;48.77;71.08;;
74496;Laerm;62979;55.720;37.606;2023-06-14T06:57:50;67.28;47.54;86.81;;
74496;Laerm;62979;55.720;37.606;2023-06-14T07:00:18;61.09;47.58;77.41;;
74496;Laerm;62979;55.720;37.606;2023-06-14T07:02:46;55.10;45.70;64.85;;
74496;Laerm;62979;55.720;37.606;2023-06-14T07:05:13;57.67;48.91;71.41;;
74496;Laerm;62979;55.720;37.606;2023-06-14T07:07:41;56.78;48.85;69.01;;
74496;Laerm;62979;55.720;37.606;2023-06-14T07:10:09;56.18;50.10;64.88;;
74496;Laerm;62979;55.720;37.606;2023-06-14T07:12:36;55.25;48.29;66.17;;
74496;Laerm;62979;55.720;37.606;2023-06-14T07:15:06;56.10;49.00;68.65;;
74496;Laerm;62979;55.720;37.606;2023-06-14T07:17:34;56.28;49.24;69.05;;
74496;Laerm;62979;55.720;37.606;2023-06-14T07:20:02;55.74;48.93;67.54;;
74496;Laerm;62979;55.720;37.606;2023-06-14T07:22:33;54.22;48.95;61.47;;
74496;Laerm;62979;55.720;37.606;2023-06-14T07:25:02;54.71;49.58;60.31;;
74496;Laerm;62979;55.720;37.606;2023-06-14T07:27:29;55.04;46.59;61.91;;
74496;Laerm;62979;55.720;37.606;2023-06-14T07:29:56;56.16;44.35;64.87;;
74496;Laerm;62979;55.720;37.606;2023-06-14T07:32:23;57.56;48.91;73.86;;
74496;Laerm;62979;55.720;37.606;2023-06-14T07:34:50;58.85;45.47;79.88;;
74496;Laerm;62979;55.720;37.606;2023-06-14T07:37:17;54.72;47.90;62.43;;
74496;Laerm;62979;55.720;37.606;2023-06-14T07:39:44;54.18;45.87;69.94;;
74496;Laerm;62979;55.720;37.606;2023-06-14T07:42:13;55.90;46.20;65.16;;
74496;Laerm;62979;55.720;37.606;2023-06-14T07:44:40;64.15;52.24;71.24;;
74496;Laerm;62979;55.720;37.606;2023-06-14T07:47:07;62.84;49.76;72.62;;
74496;Laerm;62979;55.720;37.606;2023-06-14T07:49:34;61.63;52.37;70.53;;
74496;Laerm;62979;55.720;37.606;2023-06-14T07:52:01;60.75;50.20;66.17;;
74496;Laerm;62979;55.720;37.606;2023-06-14T07:54:28;56.10;47.11;65.97;;
74496;Laerm;62979;55.720;37.606;2023-06-14T07:56:55;54.08;45.60;65.18;;
74496;Laerm;62979;55.720;37.606;2023-06-14T07:59:24;56.39;49.70;65.02;;
74496;Laerm;62979;55.720;37.606;2023-06-14T08:01:51;56.92;45.40;69.58;;
74496;Laerm;62979;55.720;37.606;2023-06-14T08:04:18;55.85;48.47;64.87;;
74496;Laerm;62979;55.720;37.606;2023-06-14T08:06:45;53.87;48.01;61.64;;
74496;Laerm;62979;55.720;37.606;2023-06-14T08:09:13;59.11;49.04;71.76;;
74496;Laerm;62979;55.720;37.606;2023-06-14T08:11:41;55.11;46.68;67.69;;
74496;Laerm;62979;55.720;37.606;2023-06-14T08:14:09;55.01;48.16;70.23;;
74496;Laerm;62979;55.720;37.606;2023-06-14T08:16:37;55.69;46.56;67.74;;
74496;Laerm;62979;55.720;37.606;2023-06-14T08:19:04;55.89;47.10;70.03;;
74496;Laerm;62979;55.720;37.606;2023-06-14T08:21:31;55.68;46.00;73.33;;
74496;Laerm;62979;55.720;37.606;2023-06-14T08:23:59;53.57;47.44;63.95;;
74496;Laerm;62979;55.720;37.606;2023-06-14T08:26:26;54.31;47.16;66.30;;
74496;Laerm;62979;55.720;37.606;2023-06-14T08:28:54;55.22;48.69;68.53;;
74496;Laerm;62979;55.720;37.606;2023-06-14T08:31:22;53.84;47.92;64.00;;
74496;Laerm;62979;55.720;37.606;2023-06-14T08:33:50;56.03;48.92;69.94;;
74496;Laerm;62979;55.720;37.606;2023-06-14T08:36:17;55.45;48.74;65.27;;
74496;Laerm;62979;55.720;37.606;2023-06-14T08:38:44;55.95;48.45;63.92;;
74496;Laerm;62979;55.720;37.606;2023-06-14T08:41:14;56.81;48.64;77.08;;
74496;Laerm;62979;55.720;37.606;2023-06-14T08:43:46;62.35;48.97;73.12;;
74496;Laerm;62979;55.720;37.606;2023-06-14T08:46:17;63.98;51.58;79.76;;
74496;Laerm;62979;55.720;37.606;2023-06-14T08:48:46;60.59;52.25;70.56;;
74496;Laerm;62979;55.720;37.606;2023-06-14T08:51:19;57.54;50.43;67.69;;
74496;Laerm;62979;55.720;37.606;2023-06-14T08:53:52;63.21;52.87;71.14;;
74496;Laerm;62979;55.720;37.606;2023-06-14T08:56:25;58.75;51.13;71.61;;
74496;Laerm;62979;55.720;37.606;2023-06-14T08:58:53;57.08;49.92;66.72;;
74496;Laerm;62979;55.720;37.606;2023-06-14T09:01:21;63.58;50.79;71.03;;
74496;Laerm;62979;55.720;37.606;2023-06-14T09:03:49;62.97;51.19;72.91;;
74496;Laerm;62979;55.720;37.606;2023-06-14T09:06:18;56.30;49.54;66.48;;
74496;Laerm;62979;55.720;37.606;2023-06-14T09:08:49;55.96;50.20;61.65;;
74496;Laerm;62979;55.720;37.606;2023-06-14T09:11:16;56.90;51.66;63.36;;
74496;Laerm;62979;55.720;37.606;2023-06-14T09:13:45;55.71;51.42;63.54;;
74496;Laerm;62979;55.720;37.606;2023-06-14T09:16:12;58.01;52.19;74.28;;
74496;Laerm;62979;55.720;37.606;2023-06-14T09:18:41;62.53;53.70;71.81;;
74496;Laerm;62979;55.720;37.606;2023-06-14T09:21:10;56.27;49.58;72.41;;
74496;Laerm;62979;55.720;37.606;2023-06-14T09:23:41;55.95;50.32;63.43;;
74496;Laerm;62979;55.720;37.606;2023-06-14T09:26:10;55.06;49.00;65.61;;
74496;Laerm;62979;55.720;37.606;2023-06-14T09:28:41;55.80;48.51;66.90;;
74496;Laerm;62979;55.720;37.606;2023-06-14T09:31:12;56.09;47.73;67.31;;
74496;Laerm;62979;55.720;37.606;2023-06-14T09:33:42;56.75;48.21;79.27;;
74496;Laerm;62979;55.720;37.606;2023-06-14T09:36:15;54.71;48.37;63.95;;
74496;Laerm;62979;55.720;37.606;2023-06-14T09:38:51;57.37;49.91;68.29;;
74496;Laerm;62979;55.720;37.606;2023-06-14T09:41:19;58.39;49.89;72.60;;
74496;Laerm;62979;55.720;37.606;2023-06-14T09:43:47;62.27;50.26;74.36;;
74496;Laerm;62979;55.720;37.606;2023-06-14T09:46:16;63.26;53.24;76.26;;
74496;Laerm;62979;55.720;37.606;2023-06-14T09:48:42;60.77;47.78;75.21;;
74496;Laerm;62979;55.720;37.606;2023-06-14T09:51:13;63.52;52.18;74.84;;
74496;Laerm;62979;55.720;37.606;2023-06-14T09:53:43;59.34;50.84;84.22;;
74496;Laerm;62979;55.720;37.606;2023-06-14T09:56:16;55.91;49.51;69.80;;
74496;Laerm;62979;55.720;37.606;2023-06-14T09:58:50;55.79;50.15;66.46;;
74496;Laerm;62979;55.720;37.606;2023-06-14T10:01:21;55.12;48.91;69.36;;
74496;Laerm;62979;55.720;37.606;2023-06-14T10:03:53;58.50;50.47;84.80;;
74496;Laerm;62979;55.720;37.606;2023-06-14T10:06:24;54.95;48.13;68.84;;
74496;Laerm;62979;55.720;37.606;2023-06-14T10:08:57;54.23;47.52;66.28;;
74496;Laerm;62979;55.720;37.606;2023-06-14T10:11:27;55.81;47.60;67.13;;
74496;Laerm;62979;55.720;37.606;2023-06-14T10:13:55;55.20;46.42;68.10;;
74496;Laerm;62979;55.720;37.606;2023-06-14T10:16:28;55.05;48.30;64.01;;
74496;Laerm;62979;55.720;37.606;2023-06-14T10:19:07;53.64;47.60;66.59;;
74496;Laerm;62979;55.720;37.606;2023-06-14T10:21:55;54.20;49.07;63.71;;
74496;Laerm;62979;55.720;37.606;2023-06-14T10:24:31;60.56;49.58;79.77;;
74496;Laerm;62979;55.720;37.606;2023-06-14T10:27:00;57.90;48.53;73.54;;
74496;Laerm;62979;55.720;37.606;2023-06-14T10:29:28;57.30;47.91;70.75;;
74496;Laerm;62979;55.720;37.606;2023-06-14T10:31:59;58.37;48.96;71.82;;
74496;Laerm;62979;55.720;37.606;2023-06-14T10:34:29;56.87;48.62;69.44;;
74496;Laerm;62979;55.720;37.606;2023-06-14T10:37:04;56.14;49.38;68.93;;
74496;Laerm;62979;55.720;37.606;2023-06-14T10:39:38;56.53;49.04;70.15;;
74496;Laerm;62979;55.720;37.606;2023-06-14T10:42:07;57.06;47.91;76.21;;
74496;Laerm;62979;55.720;37.606;2023-06-14T10:44:46;54.41;47.24;64.78;;
74496;Laerm;62979;55.720;37.606;2023-06-14T10:47:28;61.60;51.84;69.89;;
74496;Laerm;62979;55.720;37.606;2023-06-14T10:49:58;54.80;48.97;62.39;;
74496;Laerm;62979;55.720;37.606;2023-06-14T10:52:32;54.47;47.68;62.18;;
74496;Laerm;62979;55.720;37.606;2023-06-14T10:55:10;57.46;48.75;74.31;;
74496;Laerm;62979;55.720;37.606;2023-06-14T10:57:42;53.52;47.77;61.96;;
74496;Laerm;62979;55.720;37.606;2023-06-14T11:00:11;54.99;48.64;63.58;;
74496;Laerm;62979;55.720;37.606;2023-06-14T11:05:51;54.86;47.72;62.71;;
74496;Laerm;62979;55.720;37.606;2023-06-14T11:11:32;55.05;47.96;64.65;;
74496;Laerm;62979;55.720;37.606;2023-06-14T11:14:01;54.46;48.24;60.14;;
74496;Laerm;62979;55.720;37.606;2023-06-14T11:16:28;53.67;47.14;66.22;;
74496;Laerm;62979;55.720;37.606;2023-06-14T11:18:57;53.74;48.21;61.28;;
74496;Laerm;62979;55.720;37.606;2023-06-14T11:21:24;56.24;50.09;65.31;;
74496;Laerm;62979;55.720;37.606;2023-06-14T11:23:56;54.26;47.44;61.27;;
74496;Laerm;62979;55.720;37.606;2023-06-14T11:26:27;55.18;47.09;62.78;;
74496;Laerm;62979;55.720;37.606;2023-06-14T11:28:56;55.92;49.98;71.62;;
74496;Laerm;62979;55.720;37.606;2023-06-14T11:31:26;56.92;50.52;72.15;;
74496;Laerm;62979;55.720;37.606;2023-06-14T11:33:54;57.86;49.47;74.43;;
74496;Laerm;62979;55.720;37.606;2023-06-14T11:36:22;54.97;49.06;68.72;;
74496;Laerm;62979;55.720;37.606;2023-06-14T11:38:49;54.03;47.74;62.18;;
74496;Laerm;62979;55.720;37.606;2023-06-14T11:41:17;54.42;47.95;62.74;;
74496;Laerm;62979;55.720;37.606;2023-06-14T11:43:43;58.38;50.62;68.90;;
74496;Laerm;62979;55.720;37.606;2023-06-14T11:46:14;55.51;49.36;69.33;;
74496;Laerm;62979;55.720;37.606;2023-06-14T11:48:44;55.67;50.29;63.43;;
74496;Laerm;62979;55.720;37.606;2023-06-14T11:51:11;54.33;48.09;65.47;;
74496;Laerm;62979;55.720;37.606;2023-06-14T11:53:38;55.12;47.63;70.67;;
74496;Laerm;62979;55.720;37.606;2023-06-14T11:56:06;53.63;46.59;63.12;;
74496;Laerm;62979;55.720;37.606;2023-06-14T11:58:33;54.40;47.85;63.67;;
74496;Laerm;62979;55.720;37.606;2023-06-14T12:01:03;59.37;48.61;74.40;;
74496;Laerm;62979;55.720;37.606;2023-06-14T12:03:30;53.75;45.70;61.82;;
74496;Laerm;62979;55.720;37.606;2023-06-14T12:06:08;53.66;45.40;59.23;;
74496;Laerm;62979;55.720;37.606;2023-06-14T12:08:37;53.86;47.35;65.10;;
74496;Laerm;62979;55.720;37.606;2023-06-14T12:11:06;60.25;48.46;73.62;;
74496;Laerm;62979;55.720;37.606;2023-06-14T12:13:38;54.90;46.36;78.04;;
74496;Laerm;62979;55.720;37.606;2023-06-14T12:16:07;56.81;49.42;69.99;;
74496;Laerm;62979;55.720;37.606;2023-06-14T12:18:36;56.33;48.69;66.00;;
74496;Laerm;62979;55.720;37.606;2023-06-14T12:21:04;54.89;48.24;68.01;;
74496;Laerm;62979;55.720;37.606;2023-06-14T12:23:47;57.35;47.78;71.11;;
74496;Laerm;62979;55.720;37.606;2023-06-14T12:26:16;55.66;47.71;63.99;;
74496;Laerm;62979;55.720;37.606;2023-06-14T12:28:45;55.85;47.23;67.93;;
74496;Laerm;62979;55.720;37.606;2023-06-14T12:31:14;53.90;45.10;69.79;;
74496;Laerm;62979;55.720;37.606;2023-06-14T12:33:41;53.64;45.91;68.00;;
74496;Laerm;62979;55.720;37.606;2023-06-14T12:36:11;54.80;48.12;66.90;;
74496;Laerm;62979;55.720;37.606;2023-06-14T12:38:38;58.60;48.33;75.08;;
74496;Laerm;62979;55.720;37.606;2023-06-14T12:41:06;55.60;48.83;67.82;;
74496;Laerm;62979;55.720;37.606;2023-06-14T12:43:34;54.80;48.23;68.02;;
74496;Laerm;62979;55.720;37.606;2023-06-14T12:46:01;56.45;48.79;69.88;;
74496;Laerm;62979;55.720;37.606;2023-06-14T12:48:28;56.61;49.86;67.65;;
74496;Laerm;62979;55.720;37.606;2023-06-14T12:50:56;56.42;47.91;68.46;;
74496;Laerm;62979;55.720;37.606;2023-06-14T12:53:23;58.84;50.68;72.54;;
74496;Laerm;62979;55.720;37.606;2023-06-14T12:55:51;56.28;48.89;69.02;;
74496;Laerm;62979;55.720;37.606;2023-06-14T12:58:19;56.82;49.22;74.27;;
74496;Laerm;62979;55.720;37.606;2023-06-14T13:00:46;56.35;48.06;67.42;;
74496;Laerm;62979;55.720;37.606;2023-06-14T13:03:13;57.27;48.48;72.47;;
74496;Laerm;62979;55.720;37.606;2023-06-14T13:05:40;58.79;49.42;72.67;;
74496;Laerm;62979;55.720;37.606;2023-06-14T13:08:08;56.19;47.20;67.99;;
74496;Laerm;62979;55.720;37.606;2023-06-14T13:10:35;53.98;47.70;62.44;;
74496;Laerm;62979;55.720;37.606;2023-06-14T13:13:02;55.47;49.41;63.31;;
74496;Laerm;62979;55.720;37.606;2023-06-14T13:15:31;54.59;48.21;63.37;;
74496;Laerm;62979;55.720;37.606;2023-06-14T13:17:57;57.28;49.18;76.50;;
74496;Laerm;62979;55.720;37.606;2023-06-14T13:20:24;63.62;47.35;80.37;;
74496;Laerm;62979;55.720;37.606;2023-06-14T13:22:51;53.88;47.88;62.08;;
74496;Laerm;62979;55.720;37.606;2023-06-14T13:25:18;59.06;49.20;87.40;;
74496;Laerm;62979;55.720;37.606;2023-06-14T13:27:45;57.79;52.36;65.67;;
74496;Laerm;62979;55.720;37.606;2023-06-14T13:30:13;54.85;48.06;65.60;;
74496;Laerm;62979;55.720;37.606;2023-06-14T13:32:41;55.17;48.81;65.68;;
74496;Laerm;62979;55.720;37.606;2023-06-14T13:35:09;55.73;47.76;69.34;;
74496;Laerm;62979;55.720;37.606;2023-06-14T13:37:35;54.23;47.01;63.79;;
74496;Laerm;62979;55.720;37.606;2023-06-14T13:40:03;57.87;51.44;74.75;;
74496;Laerm;62979;55.720;37.606;2023-06-14T13:42:31;55.39;49.68;63.40;;
74496;Laerm;62979;55.720;37.606;2023-06-14T13:44:58;55.36;50.16;66.99;;